sensor_id;sensor_type;location;lat;lon;timestamp;pressure;altitude;pressure_sealevel;temperature
72405;BMP280;60395;52.020;113.548;2023-05-29T00:00:26;93218.75;;;32.35
72405;BMP280;60395;52.020;113.548;2023-05-29T00:03:30;93211.19;;;31.94
72405;BMP280;60395;52.020;113.548;2023-05-29T00:06:36;93214.59;;;32.01
72405;BMP280;60395;52.020;113.548;2023-05-29T00:09:39;93208.66;;;32.27
72405;BMP280;60395;52.020;113.548;2023-05-29T00:12:42;93209.59;;;34.48
72405;BMP280;60395;52.020;113.548;2023-05-29T00:15:46;93210.41;;;32.98
72405;BMP280;60395;52.020;113.548;2023-05-29T00:18:50;93210.66;;;32.07
72405;BMP280;60395;52.020;113.548;2023-05-29T00:21:54;93202.19;;;31.89
72405;BMP280;60395;52.020;113.548;2023-05-29T00:24:57;93209.50;;;34.17
72405;BMP280;60395;52.020;113.548;2023-05-29T00:28:01;93207.38;;;32.74
72405;BMP280;60395;52.020;113.548;2023-05-29T00:31:04;93208.38;;;32.10
72405;BMP280;60395;52.020;113.548;2023-05-29T00:34:09;93203.53;;;32.10
72405;BMP280;60395;52.020;113.548;2023-05-29T00:37:26;93204.72;;;31.98
72405;BMP280;60395;52.020;113.548;2023-05-29T00:40:45;93199.75;;;32.00
72405;BMP280;60395;52.020;113.548;2023-05-29T00:43:49;93204.41;;;31.52
72405;BMP280;60395;52.020;113.548;2023-05-29T00:46:53;93209.88;;;31.31
72405;BMP280;60395;52.020;113.548;2023-05-29T00:49:56;93212.50;;;30.81
72405;BMP280;60395;52.020;113.548;2023-05-29T00:53:21;93203.16;;;29.89
72405;BMP280;60395;52.020;113.548;2023-05-29T00:56:41;93194.84;;;28.00
72405;BMP280;60395;52.020;113.548;2023-05-29T00:59:47;93205.31;;;26.02
72405;BMP280;60395;52.020;113.548;2023-05-29T01:02:51;93203.56;;;24.62
72405;BMP280;60395;52.020;113.548;2023-05-29T01:05:56;93201.75;;;23.43
72405;BMP280;60395;52.020;113.548;2023-05-29T01:09:23;93197.25;;;22.61
72405;BMP280;60395;52.020;113.548;2023-05-29T01:15:58;93176.09;;;21.73
72405;BMP280;60395;52.020;113.548;2023-05-29T01:19:15;93185.63;;;21.57
72405;BMP280;60395;52.020;113.548;2023-05-29T01:22:38;93189.03;;;21.18
72405;BMP280;60395;52.020;113.548;2023-05-29T01:26:02;93185.09;;;20.65
72405;BMP280;60395;52.020;113.548;2023-05-29T01:29:15;93194.28;;;20.41
72405;BMP280;60395;52.020;113.548;2023-05-29T01:32:36;93180.44;;;20.23
72405;BMP280;60395;52.020;113.548;2023-05-29T01:35:39;93179.97;;;20.19
72405;BMP280;60395;52.020;113.548;2023-05-29T01:38:42;93177.63;;;20.13
72405;BMP280;60395;52.020;113.548;2023-05-29T01:41:47;93175.41;;;20.03
72405;BMP280;60395;52.020;113.548;2023-05-29T01:45:04;93173.13;;;19.80
72405;BMP280;60395;52.020;113.548;2023-05-29T01:48:27;93168.56;;;19.79
72405;BMP280;60395;52.020;113.548;2023-05-29T01:51:30;93166.91;;;19.71
72405;BMP280;60395;52.020;113.548;2023-05-29T01:54:34;93167.44;;;19.59
72405;BMP280;60395;52.020;113.548;2023-05-29T01:57:38;93170.47;;;19.22
72405;BMP280;60395;52.020;113.548;2023-05-29T02:00:42;93164.81;;;18.98
72405;BMP280;60395;52.020;113.548;2023-05-29T02:03:59;93166.97;;;18.79
72405;BMP280;60395;52.020;113.548;2023-05-29T02:07:03;93164.13;;;18.83
72405;BMP280;60395;52.020;113.548;2023-05-29T02:10:07;93156.28;;;18.96
72405;BMP280;60395;52.020;113.548;2023-05-29T02:13:10;93156.34;;;18.94
72405;BMP280;60395;52.020;113.548;2023-05-29T02:16:14;93148.81;;;18.84
72405;BMP280;60395;52.020;113.548;2023-05-29T02:19:18;93149.53;;;18.82
72405;BMP280;60395;52.020;113.548;2023-05-29T02:22:22;93154.59;;;18.88
72405;BMP280;60395;52.020;113.548;2023-05-29T02:25:26;93140.31;;;19.11
72405;BMP280;60395;52.020;113.548;2023-05-29T02:28:29;93149.41;;;19.16
72405;BMP280;60395;52.020;113.548;2023-05-29T02:31:33;93141.09;;;18.92
72405;BMP280;60395;52.020;113.548;2023-05-29T02:34:39;93134.81;;;19.00
72405;BMP280;60395;52.020;113.548;2023-05-29T02:37:43;93140.19;;;19.29
72405;BMP280;60395;52.020;113.548;2023-05-29T02:40:50;93146.53;;;19.51
72405;BMP280;60395;52.020;113.548;2023-05-29T02:43:53;93132.34;;;19.54
72405;BMP280;60395;52.020;113.548;2023-05-29T02:46:56;93129.22;;;19.64
72405;BMP280;60395;52.020;113.548;2023-05-29T02:50:00;93121.38;;;19.75
72405;BMP280;60395;52.020;113.548;2023-05-29T02:53:05;93121.13;;;19.81
72405;BMP280;60395;52.020;113.548;2023-05-29T02:56:09;93116.44;;;19.96
72405;BMP280;60395;52.020;113.548;2023-05-29T02:59:12;93106.69;;;19.91
72405;BMP280;60395;52.020;113.548;2023-05-29T03:02:15;93112.31;;;19.85
72405;BMP280;60395;52.020;113.548;2023-05-29T03:05:32;93091.31;;;19.91
72405;BMP280;60395;52.020;113.548;2023-05-29T03:08:36;93091.53;;;19.73
72405;BMP280;60395;52.020;113.548;2023-05-29T03:12:05;93094.91;;;19.86
72405;BMP280;60395;52.020;113.548;2023-05-29T03:15:22;93091.97;;;20.19
72405;BMP280;60395;52.020;113.548;2023-05-29T03:18:26;93102.34;;;20.25
72405;BMP280;60395;52.020;113.548;2023-05-29T03:21:30;93097.09;;;20.50
72405;BMP280;60395;52.020;113.548;2023-05-29T03:24:34;93102.44;;;20.50
72405;BMP280;60395;52.020;113.548;2023-05-29T03:27:39;93103.81;;;20.49
72405;BMP280;60395;52.020;113.548;2023-05-29T03:30:47;93102.50;;;20.48
72405;BMP280;60395;52.020;113.548;2023-05-29T03:33:53;93101.38;;;20.58
72405;BMP280;60395;52.020;113.548;2023-05-29T03:37:02;93095.31;;;20.84
72405;BMP280;60395;52.020;113.548;2023-05-29T03:40:07;93094.38;;;21.15
72405;BMP280;60395;52.020;113.548;2023-05-29T03:43:11;93100.00;;;21.34
72405;BMP280;60395;52.020;113.548;2023-05-29T03:46:14;93096.81;;;21.44
72405;BMP280;60395;52.020;113.548;2023-05-29T03:49:31;93090.19;;;20.93
72405;BMP280;60395;52.020;113.548;2023-05-29T03:52:36;93089.84;;;20.74
72405;BMP280;60395;52.020;113.548;2023-05-29T03:55:40;93096.53;;;21.00
72405;BMP280;60395;52.020;113.548;2023-05-29T03:59:03;93087.75;;;21.27
72405;BMP280;60395;52.020;113.548;2023-05-29T04:02:07;93086.66;;;21.47
72405;BMP280;60395;52.020;113.548;2023-05-29T04:05:12;93087.75;;;21.75
72405;BMP280;60395;52.020;113.548;2023-05-29T04:08:34;93071.47;;;21.92
72405;BMP280;60395;52.020;113.548;2023-05-29T04:11:37;93079.00;;;22.00
72405;BMP280;60395;52.020;113.548;2023-05-29T04:14:42;93079.88;;;21.96
72405;BMP280;60395;52.020;113.548;2023-05-29T04:17:47;93076.47;;;21.98
72405;BMP280;60395;52.020;113.548;2023-05-29T04:20:51;93066.03;;;22.27
72405;BMP280;60395;52.020;113.548;2023-05-29T04:23:56;93070.00;;;22.05
72405;BMP280;60395;52.020;113.548;2023-05-29T04:26:59;93072.34;;;21.88
72405;BMP280;60395;52.020;113.548;2023-05-29T04:30:07;93073.00;;;21.76
72405;BMP280;60395;52.020;113.548;2023-05-29T04:33:19;93061.66;;;21.76
72405;BMP280;60395;52.020;113.548;2023-05-29T04:36:25;93062.09;;;21.80
72405;BMP280;60395;52.020;113.548;2023-05-29T04:39:39;93051.09;;;21.97
72405;BMP280;60395;52.020;113.548;2023-05-29T04:42:45;93051.22;;;22.18
72405;BMP280;60395;52.020;113.548;2023-05-29T04:45:50;93050.66;;;22.38
72405;BMP280;60395;52.020;113.548;2023-05-29T04:48:54;93053.38;;;22.49
72405;BMP280;60395;52.020;113.548;2023-05-29T04:51:58;93043.00;;;22.77
72405;BMP280;60395;52.020;113.548;2023-05-29T04:55:05;93047.28;;;23.05
72405;BMP280;60395;52.020;113.548;2023-05-29T04:58:09;93038.97;;;23.09
72405;BMP280;60395;52.020;113.548;2023-05-29T05:01:15;93038.13;;;23.13
72405;BMP280;60395;52.020;113.548;2023-05-29T05:04:20;93041.66;;;23.09
72405;BMP280;60395;52.020;113.548;2023-05-29T05:07:24;93032.00;;;23.14
72405;BMP280;60395;52.020;113.548;2023-05-29T05:10:27;93021.28;;;23.14
72405;BMP280;60395;52.020;113.548;2023-05-29T05:13:31;93022.28;;;23.09
72405;BMP280;60395;52.020;113.548;2023-05-29T05:16:35;93017.53;;;22.99
72405;BMP280;60395;52.020;113.548;2023-05-29T05:19:39;93028.22;;;22.88
72405;BMP280;60395;52.020;113.548;2023-05-29T05:22:42;93017.88;;;22.72
72405;BMP280;60395;52.020;113.548;2023-05-29T05:25:46;93020.41;;;22.63
72405;BMP280;60395;52.020;113.548;2023-05-29T05:28:50;93020.41;;;22.63
72405;BMP280;60395;52.020;113.548;2023-05-29T05:31:55;93011.75;;;22.63
72405;BMP280;60395;52.020;113.548;2023-05-29T05:35:13;93005.50;;;22.77
72405;BMP280;60395;52.020;113.548;2023-05-29T05:38:18;93004.25;;;22.76
72405;BMP280;60395;52.020;113.548;2023-05-29T05:41:21;93016.72;;;22.69
72405;BMP280;60395;52.020;113.548;2023-05-29T05:44:26;93000.06;;;22.34
72405;BMP280;60395;52.020;113.548;2023-05-29T05:47:41;92991.34;;;22.23
72405;BMP280;60395;52.020;113.548;2023-05-29T05:50:46;93000.56;;;22.26
72405;BMP280;60395;52.020;113.548;2023-05-29T05:53:49;92992.75;;;22.22
72405;BMP280;60395;52.020;113.548;2023-05-29T05:56:54;92999.28;;;22.25
72405;BMP280;60395;52.020;113.548;2023-05-29T05:59:59;92985.09;;;22.27
72405;BMP280;60395;52.020;113.548;2023-05-29T06:03:04;92985.91;;;22.36
72405;BMP280;60395;52.020;113.548;2023-05-29T06:06:26;92985.03;;;22.39
72405;BMP280;60395;52.020;113.548;2023-05-29T06:09:30;92979.56;;;22.41
72405;BMP280;60395;52.020;113.548;2023-05-29T06:12:50;92989.38;;;22.45
72405;BMP280;60395;52.020;113.548;2023-05-29T06:16:01;92986.97;;;22.41
72405;BMP280;60395;52.020;113.548;2023-05-29T06:19:04;92972.91;;;22.30
72405;BMP280;60395;52.020;113.548;2023-05-29T06:22:20;92978.13;;;22.32
72405;BMP280;60395;52.020;113.548;2023-05-29T06:25:24;92976.78;;;22.54
72405;BMP280;60395;52.020;113.548;2023-05-29T06:28:35;92981.50;;;22.54
72405;BMP280;60395;52.020;113.548;2023-05-29T06:31:39;92973.84;;;22.48
72405;BMP280;60395;52.020;113.548;2023-05-29T06:34:43;92969.22;;;22.35
72405;BMP280;60395;52.020;113.548;2023-05-29T06:38:03;92965.63;;;22.28
72405;BMP280;60395;52.020;113.548;2023-05-29T06:41:07;92969.34;;;22.33
72405;BMP280;60395;52.020;113.548;2023-05-29T06:44:24;92969.22;;;22.46
72405;BMP280;60395;52.020;113.548;2023-05-29T06:47:28;92961.00;;;22.71
72405;BMP280;60395;52.020;113.548;2023-05-29T06:50:32;92968.66;;;22.67
72405;BMP280;60395;52.020;113.548;2023-05-29T06:53:55;92960.88;;;22.73
72405;BMP280;60395;52.020;113.548;2023-05-29T06:57:01;92955.91;;;22.78
72405;BMP280;60395;52.020;113.548;2023-05-29T07:00:13;92956.28;;;22.82
72405;BMP280;60395;52.020;113.548;2023-05-29T07:03:26;92940.88;;;22.83
72405;BMP280;60395;52.020;113.548;2023-05-29T07:06:30;92950.56;;;22.99
72405;BMP280;60395;52.020;113.548;2023-05-29T07:09:33;92940.75;;;22.74
72405;BMP280;60395;52.020;113.548;2023-05-29T07:12:37;92953.31;;;22.55
72405;BMP280;60395;52.020;113.548;2023-05-29T07:15:41;92939.44;;;22.41
72405;BMP280;60395;52.020;113.548;2023-05-29T07:18:45;92932.16;;;22.51
72405;BMP280;60395;52.020;113.548;2023-05-29T07:21:48;92933.69;;;22.37
72405;BMP280;60395;52.020;113.548;2023-05-29T07:24:54;92923.63;;;22.37
72405;BMP280;60395;52.020;113.548;2023-05-29T07:27:58;92921.94;;;22.42
72405;BMP280;60395;52.020;113.548;2023-05-29T07:31:15;92940.44;;;22.47
72405;BMP280;60395;52.020;113.548;2023-05-29T07:34:20;92921.06;;;22.46
72405;BMP280;60395;52.020;113.548;2023-05-29T07:37:24;92929.72;;;22.47
72405;BMP280;60395;52.020;113.548;2023-05-29T07:40:28;92925.00;;;22.36
72405;BMP280;60395;52.020;113.548;2023-05-29T07:43:34;92930.75;;;22.41
72405;BMP280;60395;52.020;113.548;2023-05-29T07:46:42;92930.88;;;22.50
72405;BMP280;60395;52.020;113.548;2023-05-29T07:50:04;92925.50;;;22.39
72405;BMP280;60395;52.020;113.548;2023-05-29T07:53:09;92923.19;;;22.33
72405;BMP280;60395;52.020;113.548;2023-05-29T07:56:14;92919.66;;;22.47
72405;BMP280;60395;52.020;113.548;2023-05-29T07:59:18;92935.97;;;22.43
72405;BMP280;60395;52.020;113.548;2023-05-29T08:02:22;92924.13;;;22.51
72405;BMP280;60395;52.020;113.548;2023-05-29T08:05:40;92912.41;;;22.56
72405;BMP280;60395;52.020;113.548;2023-05-29T08:08:46;92919.94;;;22.54
72405;BMP280;60395;52.020;113.548;2023-05-29T08:11:51;92919.94;;;22.54
72405;BMP280;60395;52.020;113.548;2023-05-29T08:14:54;92924.13;;;22.61
72405;BMP280;60395;52.020;113.548;2023-05-29T08:17:57;92923.91;;;22.65
72405;BMP280;60395;52.020;113.548;2023-05-29T08:21:01;92921.22;;;22.65
72405;BMP280;60395;52.020;113.548;2023-05-29T08:24:05;92922.63;;;22.64
72405;BMP280;60395;52.020;113.548;2023-05-29T08:27:08;92922.47;;;22.66
72405;BMP280;60395;52.020;113.548;2023-05-29T08:30:12;92924.03;;;22.63
72405;BMP280;60395;52.020;113.548;2023-05-29T08:33:16;92915.84;;;22.55
72405;BMP280;60395;52.020;113.548;2023-05-29T08:36:19;92921.97;;;22.53
72405;BMP280;60395;52.020;113.548;2023-05-29T08:39:25;92922.72;;;22.52
72405;BMP280;60395;52.020;113.548;2023-05-29T08:42:32;92923.75;;;22.57
72405;BMP280;60395;52.020;113.548;2023-05-29T08:45:42;92917.00;;;22.58
72405;BMP280;60395;52.020;113.548;2023-05-29T08:48:49;92921.19;;;22.55
72405;BMP280;60395;52.020;113.548;2023-05-29T08:52:02;92914.44;;;22.56
72405;BMP280;60395;52.020;113.548;2023-05-29T08:55:06;92919.53;;;22.49
72405;BMP280;60395;52.020;113.548;2023-05-29T08:58:11;92910.75;;;22.51
72405;BMP280;60395;52.020;113.548;2023-05-29T09:01:14;92912.78;;;22.50
72405;BMP280;60395;52.020;113.548;2023-05-29T09:04:18;92918.38;;;22.46
72405;BMP280;60395;52.020;113.548;2023-05-29T09:07:22;92900.91;;;22.36
72405;BMP280;60395;52.020;113.548;2023-05-29T09:10:28;92909.06;;;22.34
72405;BMP280;60395;52.020;113.548;2023-05-29T09:13:32;92910.06;;;22.29
72405;BMP280;60395;52.020;113.548;2023-05-29T09:16:41;92920.13;;;22.28
72405;BMP280;60395;52.020;113.548;2023-05-29T09:19:48;92913.38;;;22.29
72405;BMP280;60395;52.020;113.548;2023-05-29T09:22:59;92908.94;;;22.26
72405;BMP280;60395;52.020;113.548;2023-05-29T09:26:06;92904.44;;;22.22
72405;BMP280;60395;52.020;113.548;2023-05-29T09:29:10;92903.69;;;22.24
72405;BMP280;60395;52.020;113.548;2023-05-29T09:32:16;92894.25;;;22.25
72405;BMP280;60395;52.020;113.548;2023-05-29T09:35:20;92896.44;;;22.22
72405;BMP280;60395;52.020;113.548;2023-05-29T09:38:23;92896.69;;;22.18
72405;BMP280;60395;52.020;113.548;2023-05-29T09:41:46;92899.69;;;22.12
72405;BMP280;60395;52.020;113.548;2023-05-29T09:44:52;92899.44;;;22.06
72405;BMP280;60395;52.020;113.548;2023-05-29T09:47:56;92893.66;;;21.91
72405;BMP280;60395;52.020;113.548;2023-05-29T09:51:02;92891.97;;;21.85
72405;BMP280;60395;52.020;113.548;2023-05-29T09:54:16;92888.16;;;21.82
72405;BMP280;60395;52.020;113.548;2023-05-29T09:57:20;92883.91;;;21.75
72405;BMP280;60395;52.020;113.548;2023-05-29T10:00:26;92890.16;;;21.71
72405;BMP280;60395;52.020;113.548;2023-05-29T10:03:30;92894.44;;;21.66
72405;BMP280;60395;52.020;113.548;2023-05-29T10:06:38;92890.72;;;21.61
72405;BMP280;60395;52.020;113.548;2023-05-29T10:09:44;92892.72;;;21.50
72405;BMP280;60395;52.020;113.548;2023-05-29T10:12:51;92894.56;;;21.41
72405;BMP280;60395;52.020;113.548;2023-05-29T10:15:55;92888.41;;;21.32
72405;BMP280;60395;52.020;113.548;2023-05-29T10:19:00;92881.38;;;21.26
72405;BMP280;60395;52.020;113.548;2023-05-29T10:22:05;92885.56;;;21.23
72405;BMP280;60395;52.020;113.548;2023-05-29T10:25:09;92885.78;;;21.19
72405;BMP280;60395;52.020;113.548;2023-05-29T10:28:15;92882.47;;;21.19
72405;BMP280;60395;52.020;113.548;2023-05-29T10:31:30;92885.16;;;21.19
72405;BMP280;60395;52.020;113.548;2023-05-29T10:34:42;92880.38;;;21.09
72405;BMP280;60395;52.020;113.548;2023-05-29T10:38:02;92885.97;;;21.05
72405;BMP280;60395;52.020;113.548;2023-05-29T10:47:34;92868.91;;;20.87
72405;BMP280;60395;52.020;113.548;2023-05-29T10:50:40;92882.34;;;20.85
72405;BMP280;60395;52.020;113.548;2023-05-29T10:53:44;92880.78;;;20.77
72405;BMP280;60395;52.020;113.548;2023-05-29T10:56:57;92887.94;;;20.68
72405;BMP280;60395;52.020;113.548;2023-05-29T11:00:07;92891.59;;;20.63
72405;BMP280;60395;52.020;113.548;2023-05-29T11:03:19;92895.84;;;20.58
72405;BMP280;60395;52.020;113.548;2023-05-29T11:06:26;92885.63;;;20.50
72405;BMP280;60395;52.020;113.548;2023-05-29T11:09:37;92890.56;;;20.45
72405;BMP280;60395;52.020;113.548;2023-05-29T11:12:58;92898.88;;;20.39
72405;BMP280;60395;52.020;113.548;2023-05-29T11:19:31;92895.03;;;20.23
72405;BMP280;60395;52.020;113.548;2023-05-29T11:26:04;92896.31;;;20.12
72405;BMP280;60395;52.020;113.548;2023-05-29T11:29:08;92893.50;;;20.01
72405;BMP280;60395;52.020;113.548;2023-05-29T11:32:16;92895.22;;;19.94
72405;BMP280;60395;52.020;113.548;2023-05-29T11:35:22;92900.13;;;19.90
72405;BMP280;60395;52.020;113.548;2023-05-29T11:38:26;92909.88;;;19.81
72405;BMP280;60395;52.020;113.548;2023-05-29T11:41:30;92907.75;;;19.71
72405;BMP280;60395;52.020;113.548;2023-05-29T11:44:34;92900.25;;;19.60
72405;BMP280;60395;52.020;113.548;2023-05-29T11:47:58;92905.16;;;19.56
72405;BMP280;60395;52.020;113.548;2023-05-29T11:51:03;92913.00;;;19.45
72405;BMP280;60395;52.020;113.548;2023-05-29T11:54:11;92910.91;;;19.33
72405;BMP280;60395;52.020;113.548;2023-05-29T11:57:19;92904.88;;;19.20
72405;BMP280;60395;52.020;113.548;2023-05-29T12:00:23;92910.88;;;19.06
72405;BMP280;60395;52.020;113.548;2023-05-29T12:03:27;92893.47;;;18.94
72405;BMP280;60395;52.020;113.548;2023-05-29T12:06:32;92894.94;;;18.91
72405;BMP280;60395;52.020;113.548;2023-05-29T12:09:36;92899.19;;;18.86
72405;BMP280;60395;52.020;113.548;2023-05-29T12:12:41;92903.50;;;18.79
72405;BMP280;60395;52.020;113.548;2023-05-29T12:15:44;92907.72;;;18.74
72405;BMP280;60395;52.020;113.548;2023-05-29T12:18:48;92905.44;;;18.66
72405;BMP280;60395;52.020;113.548;2023-05-29T12:21:51;92910.19;;;18.49
72405;BMP280;60395;52.020;113.548;2023-05-29T12:24:55;92913.50;;;18.20
72405;BMP280;60395;52.020;113.548;2023-05-29T12:27:59;92922.38;;;17.84
72405;BMP280;60395;52.020;113.548;2023-05-29T12:31:02;92923.22;;;17.47
72405;BMP280;60395;52.020;113.548;2023-05-29T12:34:11;92924.84;;;17.23
72405;BMP280;60395;52.020;113.548;2023-05-29T12:37:22;92930.38;;;17.00
72405;BMP280;60395;52.020;113.548;2023-05-29T12:40:27;92933.66;;;16.84
72405;BMP280;60395;52.020;113.548;2023-05-29T12:43:31;92927.03;;;16.67
72405;BMP280;60395;52.020;113.548;2023-05-29T12:46:44;92934.78;;;16.54
72405;BMP280;60395;52.020;113.548;2023-05-29T12:49:48;92924.75;;;16.38
72405;BMP280;60395;52.020;113.548;2023-05-29T12:53:03;92928.63;;;16.22
72405;BMP280;60395;52.020;113.548;2023-05-29T12:56:07;92924.13;;;16.00
72405;BMP280;60395;52.020;113.548;2023-05-29T12:59:11;92926.66;;;15.83
72405;BMP280;60395;52.020;113.548;2023-05-29T13:02:15;92925.78;;;15.70
72405;BMP280;60395;52.020;113.548;2023-05-29T13:05:19;92920.38;;;15.54
72405;BMP280;60395;52.020;113.548;2023-05-29T13:08:26;92922.69;;;15.43
72405;BMP280;60395;52.020;113.548;2023-05-29T13:11:29;92923.66;;;15.34
72405;BMP280;60395;52.020;113.548;2023-05-29T13:14:32;92930.06;;;15.20
72405;BMP280;60395;52.020;113.548;2023-05-29T13:17:36;92925.06;;;15.10
72405;BMP280;60395;52.020;113.548;2023-05-29T13:20:40;92921.31;;;15.03
72405;BMP280;60395;52.020;113.548;2023-05-29T13:23:44;92925.97;;;15.02
72405;BMP280;60395;52.020;113.548;2023-05-29T13:26:47;92922.22;;;14.95
72405;BMP280;60395;52.020;113.548;2023-05-29T13:29:54;92927.63;;;14.91
72405;BMP280;60395;52.020;113.548;2023-05-29T13:32:57;92919.16;;;14.87
72405;BMP280;60395;52.020;113.548;2023-05-29T13:36:01;92923.91;;;14.82
72405;BMP280;60395;52.020;113.548;2023-05-29T13:39:05;92924.84;;;14.75
72405;BMP280;60395;52.020;113.548;2023-05-29T13:42:09;92929.69;;;14.66
72405;BMP280;60395;52.020;113.548;2023-05-29T13:45:12;92935.16;;;14.60
72405;BMP280;60395;52.020;113.548;2023-05-29T13:48:17;92935.44;;;14.50
72405;BMP280;60395;52.020;113.548;2023-05-29T13:51:21;92942.22;;;14.43
72405;BMP280;60395;52.020;113.548;2023-05-29T13:54:25;92939.16;;;14.34
72405;BMP280;60395;52.020;113.548;2023-05-29T13:57:31;92938.69;;;14.28
72405;BMP280;60395;52.020;113.548;2023-05-29T14:00:35;92940.69;;;14.27
72405;BMP280;60395;52.020;113.548;2023-05-29T14:03:38;92936.22;;;14.22
72405;BMP280;60395;52.020;113.548;2023-05-29T14:06:44;92948.34;;;14.13
72405;BMP280;60395;52.020;113.548;2023-05-29T14:09:48;92937.25;;;14.08
72405;BMP280;60395;52.020;113.548;2023-05-29T14:12:52;92945.25;;;14.04
72405;BMP280;60395;52.020;113.548;2023-05-29T14:15:55;92942.03;;;14.01
72405;BMP280;60395;52.020;113.548;2023-05-29T14:19:00;92942.75;;;13.98
72405;BMP280;60395;52.020;113.548;2023-05-29T14:22:04;92943.50;;;13.96
72405;BMP280;60395;52.020;113.548;2023-05-29T14:25:08;92940.22;;;13.96
72405;BMP280;60395;52.020;113.548;2023-05-29T14:28:12;92942.94;;;13.92
72405;BMP280;60395;52.020;113.548;2023-05-29T14:31:15;92940.38;;;13.90
72405;BMP280;60395;52.020;113.548;2023-05-29T14:34:19;92949.84;;;13.81
72405;BMP280;60395;52.020;113.548;2023-05-29T14:37:22;92947.41;;;13.73
72405;BMP280;60395;52.020;113.548;2023-05-29T14:40:26;92944.25;;;13.66
72405;BMP280;60395;52.020;113.548;2023-05-29T14:43:29;92943.03;;;13.61
72405;BMP280;60395;52.020;113.548;2023-05-29T14:46:34;92940.63;;;13.53
72405;BMP280;60395;52.020;113.548;2023-05-29T14:49:38;92942.34;;;13.36
72405;BMP280;60395;52.020;113.548;2023-05-29T14:52:41;92942.06;;;13.19
72405;BMP280;60395;52.020;113.548;2023-05-29T14:55:45;92941.53;;;13.15
72405;BMP280;60395;52.020;113.548;2023-05-29T14:58:48;92938.25;;;13.12
72405;BMP280;60395;52.020;113.548;2023-05-29T15:01:52;92940.34;;;13.08
72405;BMP280;60395;52.020;113.548;2023-05-29T15:04:56;92937.72;;;13.08
72405;BMP280;60395;52.020;113.548;2023-05-29T15:08:00;92937.50;;;12.87
72405;BMP280;60395;52.020;113.548;2023-05-29T15:11:03;92939.91;;;12.66
72405;BMP280;60395;52.020;113.548;2023-05-29T15:14:07;92945.47;;;12.52
72405;BMP280;60395;52.020;113.548;2023-05-29T15:17:10;92943.06;;;12.40
72405;BMP280;60395;52.020;113.548;2023-05-29T15:20:13;92933.34;;;12.32
72405;BMP280;60395;52.020;113.548;2023-05-29T15:23:17;92936.00;;;12.32
72405;BMP280;60395;52.020;113.548;2023-05-29T15:26:21;92942.97;;;12.44
72405;BMP280;60395;52.020;113.548;2023-05-29T15:29:25;92943.59;;;12.49
72405;BMP280;60395;52.020;113.548;2023-05-29T15:32:31;92933.63;;;12.51
72405;BMP280;60395;52.020;113.548;2023-05-29T15:35:35;92932.19;;;12.56
72405;BMP280;60395;52.020;113.548;2023-05-29T15:38:39;92929.53;;;12.58
72405;BMP280;60395;52.020;113.548;2023-05-29T15:41:42;92918.31;;;12.60
72405;BMP280;60395;52.020;113.548;2023-05-29T15:44:46;92919.00;;;12.58
72405;BMP280;60395;52.020;113.548;2023-05-29T15:47:49;92927.03;;;12.52
72405;BMP280;60395;52.020;113.548;2023-05-29T15:50:53;92932.41;;;12.48
72405;BMP280;60395;52.020;113.548;2023-05-29T15:53:56;92927.28;;;12.40
72405;BMP280;60395;52.020;113.548;2023-05-29T15:57:00;92926.88;;;12.27
72405;BMP280;60395;52.020;113.548;2023-05-29T16:00:05;92926.44;;;12.15
72405;BMP280;60395;52.020;113.548;2023-05-29T16:03:11;92929.97;;;12.01
72405;BMP280;60395;52.020;113.548;2023-05-29T16:06:14;92930.22;;;11.87
72405;BMP280;60395;52.020;113.548;2023-05-29T16:09:18;92930.53;;;11.69
72405;BMP280;60395;52.020;113.548;2023-05-29T16:12:22;92926.22;;;11.51
72405;BMP280;60395;52.020;113.548;2023-05-29T16:15:26;92922.41;;;11.44
72405;BMP280;60395;52.020;113.548;2023-05-29T16:18:29;92913.09;;;11.49
72405;BMP280;60395;52.020;113.548;2023-05-29T16:21:33;92911.66;;;11.56
72405;BMP280;60395;52.020;113.548;2023-05-29T16:24:39;92909.53;;;11.67
72405;BMP280;60395;52.020;113.548;2023-05-29T16:27:43;92912.75;;;11.71
72405;BMP280;60395;52.020;113.548;2023-05-29T16:30:47;92910.81;;;11.68
72405;BMP280;60395;52.020;113.548;2023-05-29T16:33:52;92928.09;;;11.57
72405;BMP280;60395;52.020;113.548;2023-05-29T16:36:56;92920.38;;;11.47
72405;BMP280;60395;52.020;113.548;2023-05-29T16:39:59;92913.47;;;11.27
72405;BMP280;60395;52.020;113.548;2023-05-29T16:43:03;92919.66;;;11.09
72405;BMP280;60395;52.020;113.548;2023-05-29T16:46:07;92912.00;;;10.91
72405;BMP280;60395;52.020;113.548;2023-05-29T16:49:11;92920.09;;;10.79
72405;BMP280;60395;52.020;113.548;2023-05-29T16:52:14;92918.25;;;10.67
72405;BMP280;60395;52.020;113.548;2023-05-29T16:55:22;92928.19;;;10.59
72405;BMP280;60395;52.020;113.548;2023-05-29T16:58:27;92930.28;;;10.48
72405;BMP280;60395;52.020;113.548;2023-05-29T17:01:31;92923.22;;;10.37
72405;BMP280;60395;52.020;113.548;2023-05-29T17:04:35;92922.72;;;10.24
72405;BMP280;60395;52.020;113.548;2023-05-29T17:07:39;92917.66;;;10.06
72405;BMP280;60395;52.020;113.548;2023-05-29T17:10:42;92914.00;;;9.79
72405;BMP280;60395;52.020;113.548;2023-05-29T17:13:48;92912.81;;;9.63
72405;BMP280;60395;52.020;113.548;2023-05-29T17:16:52;92912.19;;;9.59
72405;BMP280;60395;52.020;113.548;2023-05-29T17:19:56;92915.50;;;9.57
72405;BMP280;60395;52.020;113.548;2023-05-29T17:22:59;92915.47;;;9.59
72405;BMP280;60395;52.020;113.548;2023-05-29T17:26:03;92906.25;;;9.62
72405;BMP280;60395;52.020;113.548;2023-05-29T17:29:06;92912.78;;;9.65
72405;BMP280;60395;52.020;113.548;2023-05-29T17:32:10;92906.88;;;9.69
72405;BMP280;60395;52.020;113.548;2023-05-29T17:35:13;92897.69;;;9.68
72405;BMP280;60395;52.020;113.548;2023-05-29T17:38:16;92903.59;;;9.64